createdAt,value
2018-10-16T00:00:46.507Z,91.26
2018-10-16T00:03:14.736Z,91.14
2018-10-16T00:05:42.776Z,91.33
2018-10-16T00:08:10.865Z,91.75
2018-10-16T00:10:39.473Z,92.46
2018-10-16T00:13:09.069Z,92.08
2018-10-16T00:15:37.251Z,92.90
2018-10-16T00:18:05.999Z,92.76
2018-10-16T00:20:34.293Z,92.50
2018-10-16T00:23:02.552Z,92.90
2018-10-16T00:25:30.619Z,92.79
2018-10-16T00:27:58.696Z,92.63
2018-10-16T00:30:26.783Z,92.52
2018-10-16T00:32:54.872Z,91.87
2018-10-16T00:35:22.982Z,91.74
2018-10-16T00:37:51.068Z,91.57
2018-10-16T00:40:19.164Z,91.88
2018-10-16T00:42:47.239Z,93.39
2018-10-16T00:45:15.341Z,93.71
2018-10-16T00:47:43.428Z,94.21
2018-10-16T00:50:11.488Z,93.91
2018-10-16T00:52:39.752Z,93.82
2018-10-16T00:55:08.856Z,94.54
2018-10-16T00:57:37.151Z,93.67
2018-10-16T01:00:05.495Z,93.71
2018-10-16T01:02:33.593Z,94.02
2018-10-16T01:05:01.716Z,94.44
2018-10-16T01:07:29.856Z,94.78
2018-10-16T01:09:57.930Z,94.48
2018-10-16T01:12:26.024Z,94.75
2018-10-16T01:14:54.125Z,94.74
2018-10-16T01:17:22.264Z,94.39
2018-10-16T01:19:50.385Z,92.92
2018-10-16T01:22:18.495Z,92.71
2018-10-16T01:24:46.564Z,92.66
2018-10-16T01:27:14.684Z,93.41
2018-10-16T01:29:42.863Z,93.79
2018-10-16T01:32:10.959Z,93.56
2018-10-16T01:34:39.041Z,92.88
2018-10-16T01:37:07.154Z,92.44
2018-10-16T01:39:35.244Z,93.36
2018-10-16T01:42:03.331Z,93.96
2018-10-16T01:44:31.440Z,94.03
2018-10-16T01:46:59.624Z,93.79
2018-10-16T01:49:27.704Z,93.56
2018-10-16T01:51:55.796Z,93.38
2018-10-16T01:54:23.911Z,93.33
2018-10-16T01:56:51.987Z,93.42
2018-10-16T01:59:20.152Z,94.82
2018-10-16T02:01:48.258Z,95.17
2018-10-16T02:04:16.354Z,96.03
2018-10-16T02:06:44.433Z,96.69
2018-10-16T02:09:12.951Z,97.33
2018-10-16T02:11:41.071Z,97.61
2018-10-16T02:14:09.395Z,97.98
2018-10-16T02:16:37.514Z,97.45
2018-10-16T02:19:05.807Z,96.67
2018-10-16T02:21:33.889Z,96.58
2018-10-16T02:24:02.042Z,96.01
2018-10-16T02:26:30.097Z,96.04
2018-10-16T02:28:58.187Z,95.79
2018-10-16T02:31:26.668Z,95.09
2018-10-16T02:33:54.767Z,95.42
2018-10-16T02:36:22.827Z,95.98
2018-10-16T02:38:50.917Z,96.27
2018-10-16T02:41:19.007Z,97.10
2018-10-16T02:43:47.367Z,97.60
2018-10-16T02:46:15.479Z,97.64
2018-10-16T02:48:43.571Z,98.05
2018-10-16T02:51:11.659Z,97.50
2018-10-16T02:53:40.020Z,97.95
2018-10-16T02:56:08.456Z,98.10
2018-10-16T02:58:36.572Z,98.25
2018-10-16T03:01:05.112Z,98.08
2018-10-16T03:03:35.279Z,98.21
2018-10-16T03:06:03.509Z,97.35
2018-10-16T03:08:31.770Z,96.62
2018-10-16T03:10:59.882Z,96.70
2018-10-16T03:13:28.002Z,97.89
2018-10-16T03:15:56.092Z,97.61
2018-10-16T03:18:24.203Z,98.33
2018-10-16T03:20:52.279Z,98.23
2018-10-16T03:23:20.357Z,97.98
2018-10-16T03:25:48.457Z,97.98
2018-10-16T03:28:16.525Z,97.74
2018-10-16T03:30:44.643Z,98.54
2018-10-16T03:33:12.719Z,98.12
2018-10-16T03:35:40.907Z,97.98
2018-10-16T03:38:09.038Z,97.59
2018-10-16T03:40:37.153Z,97.50
2018-10-16T03:43:05.331Z,97.50
2018-10-16T03:45:33.420Z,97.64
2018-10-16T03:48:01.516Z,97.14
2018-10-16T03:50:29.609Z,97.18
2018-10-16T03:52:57.696Z,96.43
2018-10-16T03:55:25.819Z,96.71
2018-10-16T03:57:53.911Z,96.11
2018-10-16T04:00:22.016Z,96.05
2018-10-16T04:02:50.088Z,96.25
2018-10-16T04:05:18.223Z,96.34
2018-10-16T04:07:46.324Z,96.92
2018-10-16T04:10:14.416Z,96.67
2018-10-16T04:12:42.525Z,97.55
2018-10-16T04:15:11.465Z,97.14
2018-10-16T04:17:40.140Z,97.13
2018-10-16T04:20:08.223Z,96.52
2018-10-16T04:22:36.343Z,95.67
2018-10-16T04:25:04.444Z,95.56
2018-10-16T04:27:32.531Z,94.79
2018-10-16T04:30:00.609Z,95.60
2018-10-16T04:32:28.684Z,96.03
2018-10-16T04:34:56.851Z,96.86
2018-10-16T04:37:24.961Z,96.76
2018-10-16T04:39:53.227Z,97.07
2018-10-16T04:42:21.319Z,97.49
2018-10-16T04:44:49.434Z,97.37
2018-10-16T04:47:17.541Z,97.90
2018-10-16T04:49:45.641Z,97.28
2018-10-16T04:52:13.901Z,98.11
2018-10-16T04:54:41.995Z,97.93
2018-10-16T04:57:10.108Z,97.70
2018-10-16T04:59:38.196Z,98.77
2018-10-16T05:02:06.381Z,99.06
2018-10-16T05:04:34.524Z,99.34
2018-10-16T05:07:02.664Z,99.39
2018-10-16T05:09:30.752Z,99.34
2018-10-16T05:11:58.861Z,99.48
2018-10-16T05:14:27.121Z,99.18
2018-10-16T05:16:55.245Z,99.11
2018-10-16T05:19:23.306Z,99.15
2018-10-16T05:21:51.407Z,98.83
2018-10-16T05:24:19.502Z,98.69
2018-10-16T05:26:47.589Z,98.51
2018-10-16T05:29:15.711Z,98.39
2018-10-16T05:31:43.783Z,98.29
2018-10-16T05:34:11.894Z,98.30
2018-10-16T05:36:39.980Z,97.97
2018-10-16T05:39:10.254Z,97.15
2018-10-16T05:41:38.257Z,97.16
2018-10-16T05:44:06.395Z,96.96
2018-10-16T05:46:34.467Z,96.74
2018-10-16T05:49:04.304Z,96.28
2018-10-16T05:51:32.351Z,95.83
2018-10-16T05:54:00.436Z,96.30
2018-10-16T05:56:28.502Z,96.98
2018-10-16T05:58:56.591Z,96.90
2018-10-16T06:01:24.660Z,97.50
2018-10-16T06:03:52.730Z,97.65
2018-10-16T06:06:20.841Z,98.08
2018-10-16T06:08:48.921Z,98.32
2018-10-16T06:11:17.067Z,98.12
2018-10-16T06:13:45.168Z,98.14
2018-10-16T06:16:13.241Z,98.38
2018-10-16T06:18:41.456Z,98.50
2018-10-16T06:21:09.545Z,98.86
2018-10-16T06:23:37.712Z,98.71
2018-10-16T06:26:05.917Z,99.25
2018-10-16T06:28:34.115Z,98.76
2018-10-16T06:31:02.261Z,98.93
2018-10-16T06:33:31.611Z,98.90
2018-10-16T06:35:59.700Z,98.50
2018-10-16T06:38:27.843Z,99.06
2018-10-16T06:40:56.779Z,98.79
2018-10-16T06:43:24.814Z,98.76
2018-10-16T06:45:52.981Z,98.78
2018-10-16T06:48:21.292Z,98.52
2018-10-16T06:50:49.382Z,99.09
2018-10-16T06:53:17.665Z,98.58
2018-10-16T06:55:45.889Z,98.40
2018-10-16T06:58:18.318Z,98.46
2018-10-16T07:00:46.540Z,98.42
2018-10-16T07:03:14.828Z,97.69
2018-10-16T07:05:43.109Z,97.33
2018-10-16T07:08:11.325Z,97.19
2018-10-16T07:10:39.512Z,96.55
2018-10-16T07:13:07.773Z,96.12
2018-10-16T07:15:35.986Z,95.32
2018-10-16T07:18:04.403Z,95.32
2018-10-16T07:20:32.635Z,95.63
2018-10-16T07:23:00.743Z,95.73
2018-10-16T07:25:28.857Z,95.42
2018-10-16T07:27:57.067Z,95.63
2018-10-16T07:30:25.332Z,95.54
2018-10-16T07:32:53.533Z,95.32
2018-10-16T07:35:22.329Z,95.20
2018-10-16T07:37:51.032Z,95.60
2018-10-16T07:40:19.059Z,95.71
2018-10-16T07:42:47.188Z,95.75
2018-10-16T07:45:16.285Z,95.53
2018-10-16T07:47:44.372Z,95.37
2018-10-16T07:50:12.704Z,95.23
2018-10-16T07:52:40.820Z,95.66
2018-10-16T07:55:10.916Z,95.63
2018-10-16T07:57:39.106Z,94.66
2018-10-16T08:00:08.115Z,94.52
2018-10-16T08:02:36.680Z,94.40
2018-10-16T08:05:05.965Z,93.60
2018-10-16T08:07:34.462Z,93.39
2018-10-16T08:10:02.659Z,93.14
2018-10-16T08:12:30.892Z,93.80
2018-10-16T08:14:58.998Z,93.15
2018-10-16T08:17:27.198Z,92.45
2018-10-16T08:19:55.408Z,91.72
2018-10-16T08:22:23.643Z,90.81
2018-10-16T08:24:51.840Z,90.30
2018-10-16T08:27:20.048Z,90.35
2018-10-16T08:29:48.263Z,90.50
2018-10-16T08:32:16.495Z,90.46
2018-10-16T08:34:44.717Z,90.25
2018-10-16T08:37:17.948Z,89.45
2018-10-16T08:39:46.137Z,89.18
2018-10-16T08:43:22.661Z,88.78
2018-10-16T08:46:02.258Z,88.60
2018-10-16T08:48:41.938Z,87.63
2018-10-16T08:51:21.457Z,86.80
2018-10-16T08:53:49.547Z,86.59
2018-10-16T08:56:17.697Z,86.25
2018-10-16T08:58:46.394Z,86.34
2018-10-16T09:01:14.471Z,85.68
2018-10-16T09:03:42.555Z,85.22
2018-10-16T09:06:10.659Z,85.03
2018-10-16T09:08:38.767Z,85.33
2018-10-16T09:11:06.839Z,85.11
2018-10-16T09:13:35.038Z,84.41
2018-10-16T09:16:03.107Z,83.48
2018-10-16T09:18:31.180Z,82.60
2018-10-16T09:20:59.268Z,82.22
2018-10-16T09:23:27.321Z,82.28
2018-10-16T09:25:55.595Z,82.43
2018-10-16T09:28:23.664Z,81.17
2018-10-16T09:30:51.734Z,81.30
2018-10-16T09:33:19.819Z,81.04
2018-10-16T09:35:49.726Z,79.99
2018-10-16T09:38:20.479Z,78.89
2018-10-16T09:40:48.548Z,79.37
2018-10-16T09:43:16.626Z,78.68
2018-10-16T09:45:44.701Z,78.31
2018-10-16T09:48:12.789Z,78.83
2018-10-16T09:50:40.927Z,77.63
2018-10-16T09:53:09.044Z,77.26
2018-10-16T09:55:37.125Z,78.10
2018-10-16T09:58:05.228Z,77.78
2018-10-16T10:00:38.732Z,77.22
2018-10-16T10:03:06.823Z,76.81
2018-10-16T10:05:35.224Z,76.45
2018-10-16T10:08:03.300Z,76.05
2018-10-16T10:10:31.451Z,76.07
2018-10-16T10:12:59.552Z,75.60
2018-10-16T10:15:27.727Z,75.34
2018-10-16T10:17:55.816Z,74.56
2018-10-16T10:20:23.903Z,73.88
2018-10-16T10:22:52.016Z,73.84
2018-10-16T10:25:20.171Z,73.40
2018-10-16T10:27:48.204Z,73.20
2018-10-16T10:30:16.299Z,73.05
2018-10-16T10:32:45.085Z,72.98
2018-10-16T10:35:14.233Z,72.16
2018-10-16T10:37:42.607Z,71.85
2018-10-16T10:40:10.737Z,71.07
2018-10-16T10:42:38.855Z,70.75
2018-10-16T10:45:08.692Z,70.04
2018-10-16T10:47:37.460Z,69.31
2018-10-16T10:50:07.669Z,69.52
2018-10-16T10:52:35.647Z,69.08
2018-10-16T10:55:04.763Z,68.49
2018-10-16T10:57:32.820Z,69.03
2018-10-16T11:00:00.887Z,68.39
2018-10-16T11:02:28.985Z,68.33
2018-10-16T11:04:57.061Z,68.32
2018-10-16T11:07:25.183Z,67.18
2018-10-16T11:09:53.256Z,66.04
2018-10-16T11:12:21.331Z,67.12
2018-10-16T11:14:49.403Z,65.89
2018-10-16T11:17:17.507Z,64.72
2018-10-16T11:19:45.593Z,64.17
2018-10-16T11:22:13.684Z,63.10
2018-10-16T11:24:41.793Z,63.00
2018-10-16T11:27:09.921Z,63.27
2018-10-16T11:29:37.982Z,62.58
2018-10-16T11:32:06.063Z,61.73
2018-10-16T11:34:34.147Z,62.26
2018-10-16T11:37:02.297Z,62.22
2018-10-16T11:39:30.369Z,61.51
2018-10-16T11:41:58.484Z,61.52
2018-10-16T11:44:26.580Z,61.66
2018-10-16T11:46:55.140Z,60.86
2018-10-16T11:49:23.211Z,59.69
2018-10-16T11:51:51.309Z,60.14
2018-10-16T11:54:19.378Z,58.83
2018-10-16T11:56:47.460Z,59.05
2018-10-16T11:59:16.599Z,58.41
2018-10-16T12:01:45.182Z,58.53
2018-10-16T12:04:13.372Z,58.63
2018-10-16T12:06:41.525Z,57.19
2018-10-16T12:09:09.817Z,55.34
2018-10-16T12:11:38.076Z,55.08
2018-10-16T12:14:06.833Z,56.30
2018-10-16T12:17:43.037Z,55.41
2018-10-16T12:20:15.068Z,54.89
2018-10-16T12:22:43.135Z,55.55
2018-10-16T12:25:11.282Z,54.68
2018-10-16T12:27:39.299Z,54.02
2018-10-16T12:30:07.855Z,53.72
2018-10-16T12:32:36.321Z,53.35
2018-10-16T12:35:04.515Z,52.41
2018-10-16T12:37:32.719Z,52.56
2018-10-16T12:40:00.868Z,52.17
2018-10-16T12:42:28.942Z,51.85
2018-10-16T12:45:00.351Z,52.36
2018-10-16T12:47:28.364Z,51.38
2018-10-16T12:49:56.476Z,51.44
2018-10-16T12:52:24.554Z,50.84
2018-10-16T12:54:52.635Z,50.63
2018-10-16T12:57:20.809Z,50.37
2018-10-16T12:59:48.848Z,49.82
2018-10-16T13:02:16.912Z,49.04
2018-10-16T13:04:44.989Z,49.42
2018-10-16T13:07:18.063Z,49.68
2018-10-16T13:09:46.149Z,49.40
2018-10-16T13:12:14.479Z,49.23
2018-10-16T13:14:42.527Z,50.07
2018-10-16T13:17:10.675Z,49.28
2018-10-16T13:19:38.680Z,49.31
2018-10-16T13:22:06.794Z,49.68
2018-10-16T13:24:34.840Z,49.38
2018-10-16T13:27:02.896Z,49.10
2018-10-16T13:29:31.125Z,49.43
2018-10-16T13:31:59.029Z,49.70
2018-10-16T13:34:27.108Z,49.11
2018-10-16T13:36:55.268Z,49.13
2018-10-16T13:39:23.267Z,48.88
2018-10-16T13:41:51.323Z,48.88
2018-10-16T13:44:19.400Z,47.90
2018-10-16T13:46:47.480Z,47.67
2018-10-16T13:49:15.579Z,47.36
2018-10-16T13:51:43.650Z,47.50
2018-10-16T13:54:11.744Z,47.39
2018-10-16T13:56:39.886Z,47.03
2018-10-16T13:59:07.937Z,46.99
2018-10-16T14:01:36.009Z,46.71
2018-10-16T14:04:04.134Z,45.68
2018-10-16T14:06:32.160Z,46.20
2018-10-16T14:09:00.352Z,45.52
2018-10-16T14:11:28.433Z,45.87
2018-10-16T14:13:56.564Z,45.42
2018-10-16T14:16:24.628Z,45.23
2018-10-16T14:18:52.800Z,45.74
2018-10-16T14:21:20.949Z,45.35
2018-10-16T14:23:49.129Z,45.75
2018-10-16T14:26:17.266Z,46.04
2018-10-16T14:28:45.332Z,45.95
2018-10-16T14:31:13.423Z,46.44
2018-10-16T14:33:41.549Z,46.13
2018-10-16T14:36:09.613Z,45.96
2018-10-16T14:38:37.692Z,46.17
2018-10-16T14:41:05.817Z,46.33
2018-10-16T14:43:33.977Z,45.89
2018-10-16T14:46:02.728Z,46.06
2018-10-16T14:48:30.836Z,45.90
2018-10-16T14:50:58.990Z,45.51
2018-10-16T14:53:27.090Z,45.96
2018-10-16T14:55:55.248Z,46.09
2018-10-16T14:58:23.308Z,46.43
2018-10-16T15:00:51.452Z,46.30
2018-10-16T15:03:19.563Z,45.56
2018-10-16T15:05:47.635Z,46.07
2018-10-16T15:08:15.842Z,45.78
2018-10-16T15:10:43.781Z,46.12
2018-10-16T15:13:11.863Z,46.31
2018-10-16T15:15:39.961Z,46.16
2018-10-16T15:18:08.064Z,46.32
2018-10-16T15:20:36.147Z,46.10
2018-10-16T15:23:04.343Z,46.44
2018-10-16T15:25:32.417Z,46.42
2018-10-16T15:28:00.559Z,47.04
2018-10-16T15:30:28.600Z,46.45
2018-10-16T15:32:56.747Z,46.43
2018-10-16T15:35:24.798Z,46.75
2018-10-16T15:37:52.900Z,46.99
2018-10-16T15:40:20.942Z,48.05
2018-10-16T15:42:49.060Z,47.54
2018-10-16T15:45:17.140Z,47.68
2018-10-16T15:47:45.223Z,47.79
2018-10-16T15:50:13.522Z,47.35
2018-10-16T15:52:41.437Z,47.35
2018-10-16T15:55:10.648Z,47.81
2018-10-16T15:57:38.816Z,47.82
2018-10-16T16:00:10.020Z,47.83
2018-10-16T16:02:38.140Z,47.89
2018-10-16T16:05:06.557Z,48.05
2018-10-16T16:07:34.648Z,47.95
2018-10-16T16:10:03.060Z,48.58
2018-10-16T16:12:31.144Z,48.68
2018-10-16T16:14:59.140Z,48.87
2018-10-16T16:17:27.239Z,48.76
2018-10-16T16:19:55.351Z,49.19
2018-10-16T16:22:23.384Z,48.76
2018-10-16T16:24:51.455Z,49.12
2018-10-16T16:27:19.543Z,49.57
2018-10-16T16:29:47.625Z,49.29
2018-10-16T16:32:15.733Z,49.42
2018-10-16T16:34:43.813Z,49.35
2018-10-16T16:37:11.902Z,49.78
2018-10-16T16:39:39.991Z,49.69
2018-10-16T16:42:08.139Z,49.73
2018-10-16T16:44:36.255Z,49.69
2018-10-16T16:47:04.298Z,49.87
2018-10-16T16:49:32.340Z,49.59
2018-10-16T16:52:00.438Z,50.08
2018-10-16T16:54:28.548Z,50.19
2018-10-16T16:56:56.600Z,50.44
2018-10-16T16:59:24.700Z,49.94
2018-10-16T17:01:52.799Z,50.31
2018-10-16T17:04:20.904Z,50.57
2018-10-16T17:06:48.927Z,51.35
2018-10-16T17:09:17.011Z,51.15
2018-10-16T17:11:45.102Z,51.67
2018-10-16T17:14:13.309Z,51.66
2018-10-16T17:16:41.371Z,52.07
2018-10-16T17:19:09.455Z,52.28
2018-10-16T17:21:37.713Z,52.63
2018-10-16T17:24:05.951Z,53.16
2018-10-16T17:26:34.087Z,52.79
2018-10-16T17:29:02.259Z,53.20
2018-10-16T17:31:30.601Z,53.84
2018-10-16T17:33:58.868Z,54.19
2018-10-16T17:36:26.859Z,54.34
2018-10-16T17:38:54.952Z,53.94
2018-10-16T17:41:23.039Z,54.47
2018-10-16T17:43:51.123Z,54.71
2018-10-16T17:46:19.198Z,55.24
2018-10-16T17:48:47.389Z,55.45
2018-10-16T17:51:15.467Z,55.28
2018-10-16T17:53:43.549Z,55.84
2018-10-16T17:56:11.661Z,55.30
2018-10-16T17:58:39.688Z,55.04
2018-10-16T18:01:07.796Z,55.66
2018-10-16T18:03:35.876Z,55.70
2018-10-16T18:06:03.973Z,56.50
2018-10-16T18:08:32.181Z,56.91
2018-10-16T18:11:00.356Z,56.78
2018-10-16T18:13:28.455Z,56.72
2018-10-16T18:15:57.337Z,57.50
2018-10-16T18:18:27.896Z,57.04
2018-10-16T18:20:57.653Z,57.67
2018-10-16T18:26:02.454Z,58.18
2018-10-16T18:28:34.553Z,58.04
2018-10-16T18:31:03.039Z,57.57
2018-10-16T18:33:34.655Z,57.83
2018-10-16T18:38:46.527Z,58.53
2018-10-16T18:41:16.744Z,58.98
2018-10-16T18:43:46.301Z,59.37
2018-10-16T18:46:15.316Z,58.62
2018-10-16T18:48:45.556Z,59.44
2018-10-16T18:51:15.224Z,59.73
2018-10-16T18:53:44.513Z,59.33
2018-10-16T18:56:14.901Z,59.43
2018-10-16T18:58:44.228Z,59.39
2018-10-16T19:01:13.666Z,59.26
2018-10-16T19:03:47.499Z,59.69
2018-10-16T19:06:18.361Z,59.35
2018-10-16T19:08:50.718Z,59.70
2018-10-16T19:11:19.932Z,59.88
2018-10-16T19:13:48.884Z,60.96
2018-10-16T19:16:17.944Z,60.97
2018-10-16T19:18:47.106Z,60.25
2018-10-16T19:21:16.749Z,60.58
2018-10-16T19:23:47.369Z,60.58
2018-10-16T19:26:17.547Z,62.21
2018-10-16T19:28:47.736Z,62.04
2018-10-16T19:31:17.666Z,63.18
2018-10-16T19:33:47.764Z,63.30
2018-10-16T19:36:18.138Z,63.78
2018-10-16T19:38:46.571Z,63.00
2018-10-16T19:41:15.336Z,64.06
2018-10-16T19:43:46.321Z,63.79
2018-10-16T19:46:16.422Z,63.58
2018-10-16T19:48:45.120Z,62.53
2018-10-16T19:51:13.831Z,62.96
2018-10-16T19:53:43.245Z,62.70
2018-10-16T19:56:12.758Z,62.79
2018-10-16T19:58:42.835Z,62.50
2018-10-16T20:01:12.092Z,62.68
2018-10-16T20:03:43.006Z,63.52
2018-10-16T20:06:13.545Z,63.98
2018-10-16T20:08:43.174Z,63.03
2018-10-16T20:11:14.396Z,63.61
2018-10-16T20:13:43.013Z,63.88
2018-10-16T20:16:12.800Z,63.80
2018-10-16T20:18:42.185Z,64.34
2018-10-16T20:21:11.644Z,64.08
2018-10-16T20:26:23.327Z,64.60
2018-10-16T20:28:53.312Z,64.06
2018-10-16T20:31:21.548Z,64.18
2018-10-16T20:33:50.659Z,64.79
2018-10-16T20:36:21.297Z,64.84
2018-10-16T20:38:51.103Z,64.93
2018-10-16T20:41:21.975Z,64.61
2018-10-16T20:43:54.237Z,65.11
2018-10-16T20:46:25.169Z,64.62
2018-10-16T20:48:55.221Z,64.66
2018-10-16T20:51:26.200Z,64.55
2018-10-16T20:53:54.562Z,65.03
2018-10-16T20:56:25.645Z,64.91
2018-10-16T20:58:54.642Z,65.53
2018-10-16T21:01:23.910Z,66.00
2018-10-16T21:03:52.906Z,65.21
2018-10-16T21:06:22.929Z,65.92
2018-10-16T21:08:51.443Z,65.57
2018-10-16T21:11:20.648Z,65.89
2018-10-16T21:13:58.812Z,65.46
2018-10-16T21:16:28.011Z,65.70
2018-10-16T21:18:59.434Z,66.33
2018-10-16T21:21:29.403Z,65.97
2018-10-16T21:24:04.540Z,66.17
2018-10-16T21:26:34.128Z,66.17
2018-10-16T21:29:03.997Z,66.33
2018-10-16T21:31:33.123Z,67.18
2018-10-16T21:34:01.717Z,66.72
2018-10-16T21:36:30.647Z,67.16
2018-10-16T21:38:59.449Z,66.60
2018-10-16T21:41:28.052Z,66.79
2018-10-16T21:43:56.939Z,67.41
2018-10-16T21:46:30.590Z,67.38
2018-10-16T21:48:58.891Z,67.15
2018-10-16T21:51:35.892Z,67.51
2018-10-16T21:54:04.182Z,68.48
2018-10-16T21:56:32.492Z,68.78
2018-10-16T21:59:01.751Z,69.44
2018-10-16T22:01:35.089Z,69.20
2018-10-16T22:04:03.168Z,69.42
2018-10-16T22:06:31.291Z,69.45
2018-10-16T22:08:59.408Z,69.94
2018-10-16T22:11:27.480Z,69.72
2018-10-16T22:13:55.559Z,69.62
2018-10-16T22:16:23.799Z,70.00
2018-10-16T22:18:52.026Z,69.89
2018-10-16T22:21:20.123Z,70.17
2018-10-16T22:23:48.242Z,69.53
2018-10-16T22:26:16.304Z,70.26
2018-10-16T22:28:44.376Z,70.63
2018-10-16T22:31:12.500Z,69.78
2018-10-16T22:33:40.676Z,70.75
2018-10-16T22:36:08.785Z,70.43
2018-10-16T22:38:36.876Z,70.54
2018-10-16T22:41:05.397Z,70.25
2018-10-16T22:43:33.411Z,70.43
2018-10-16T22:46:01.492Z,71.19
2018-10-16T22:48:29.567Z,70.53
2018-10-16T22:50:57.645Z,71.57
2018-10-16T22:53:25.748Z,71.05
2018-10-16T22:55:53.833Z,71.13
2018-10-16T22:58:21.928Z,71.92
2018-10-16T23:00:49.986Z,72.28
2018-10-16T23:03:18.109Z,71.64
2018-10-16T23:05:46.162Z,71.49
2018-10-16T23:08:14.254Z,71.81
2018-10-16T23:10:42.357Z,71.66
2018-10-16T23:13:10.606Z,72.32
2018-10-16T23:15:38.573Z,72.07
2018-10-16T23:18:06.633Z,72.85
2018-10-16T23:20:34.776Z,73.04
2018-10-16T23:23:02.917Z,72.31
2018-10-16T23:25:30.975Z,73.16
2018-10-16T23:27:59.061Z,74.37
2018-10-16T23:30:27.155Z,75.63
2018-10-16T23:32:55.211Z,76.10
2018-10-16T23:35:23.315Z,75.42
2018-10-16T23:37:51.415Z,76.19
2018-10-16T23:40:19.480Z,76.20
2018-10-16T23:42:47.547Z,77.12
2018-10-16T23:45:15.629Z,78.00
2018-10-16T23:47:43.703Z,78.44
2018-10-16T23:50:11.810Z,77.31
2018-10-16T23:52:39.906Z,76.35
2018-10-16T23:55:09.091Z,76.65
2018-10-16T23:57:37.167Z,76.35
